sensor_id;sensor_type;location;lat;lon;timestamp;P1;durP1;ratioP1;P2;durP2;ratioP2
2992;SDS011;1506;48.932;9.478;2022-08-05T00:00:13;4.80;;;3.07;;
2992;SDS011;1506;48.932;9.478;2022-08-05T00:02:43;3.90;;;3.70;;
2992;SDS011;1506;48.932;9.478;2022-08-05T00:05:20;4.30;;;3.93;;
2992;SDS011;1506;48.932;9.478;2022-08-05T00:08:08;4.10;;;3.90;;
2992;SDS011;1506;48.932;9.478;2022-08-05T00:10:59;5.50;;;3.50;;
2992;SDS011;1506;48.932;9.478;2022-08-05T00:13:32;3.47;;;3.37;;
2992;SDS011;1506;48.932;9.478;2022-08-05T00:16:07;9.00;;;4.13;;
2992;SDS011;1506;48.932;9.478;2022-08-05T00:18:38;3.73;;;3.53;;
2992;SDS011;1506;48.932;9.478;2022-08-05T00:21:09;3.53;;;3.37;;
2992;SDS011;1506;48.932;9.478;2022-08-05T00:23:40;3.20;;;3.10;;
2992;SDS011;1506;48.932;9.478;2022-08-05T00:26:18;3.57;;;3.47;;
2992;SDS011;1506;48.932;9.478;2022-08-05T00:28:47;2.90;;;2.70;;
2992;SDS011;1506;48.932;9.478;2022-08-05T00:31:15;2.90;;;2.80;;
2992;SDS011;1506;48.932;9.478;2022-08-05T00:34:02;3.20;;;3.10;;
2992;SDS011;1506;48.932;9.478;2022-08-05T00:36:50;3.67;;;3.40;;
2992;SDS011;1506;48.932;9.478;2022-08-05T00:39:37;3.17;;;3.00;;
2992;SDS011;1506;48.932;9.478;2022-08-05T00:42:30;3.80;;;3.70;;
2992;SDS011;1506;48.932;9.478;2022-08-05T00:45:03;4.50;;;4.30;;
2992;SDS011;1506;48.932;9.478;2022-08-05T00:47:38;3.53;;;3.40;;
2992;SDS011;1506;48.932;9.478;2022-08-05T00:50:22;4.33;;;4.03;;
2992;SDS011;1506;48.932;9.478;2022-08-05T00:52:52;4.60;;;4.40;;
2992;SDS011;1506;48.932;9.478;2022-08-05T00:55:20;4.97;;;4.77;;
2992;SDS011;1506;48.932;9.478;2022-08-05T00:58:08;4.83;;;4.63;;
2992;SDS011;1506;48.932;9.478;2022-08-05T01:00:44;4.80;;;4.50;;
2992;SDS011;1506;48.932;9.478;2022-08-05T01:03:15;4.57;;;4.37;;
2992;SDS011;1506;48.932;9.478;2022-08-05T01:05:51;3.20;;;3.10;;
2992;SDS011;1506;48.932;9.478;2022-08-05T01:08:20;4.13;;;3.80;;
2992;SDS011;1506;48.932;9.478;2022-08-05T01:11:18;4.37;;;4.07;;
2992;SDS011;1506;48.932;9.478;2022-08-05T01:19:41;3.20;;;3.10;;
2992;SDS011;1506;48.932;9.478;2022-08-05T01:22:36;3.60;;;3.50;;
2992;SDS011;1506;48.932;9.478;2022-08-05T01:26:02;4.07;;;3.87;;
2992;SDS011;1506;48.932;9.478;2022-08-05T01:29:04;4.00;;;3.70;;
2992;SDS011;1506;48.932;9.478;2022-08-05T01:31:58;3.77;;;3.57;;
2992;SDS011;1506;48.932;9.478;2022-08-05T01:37:03;3.80;;;3.60;;
2992;SDS011;1506;48.932;9.478;2022-08-05T01:39:50;4.90;;;4.50;;
2992;SDS011;1506;48.932;9.478;2022-08-05T01:42:24;4.80;;;4.60;;
2992;SDS011;1506;48.932;9.478;2022-08-05T01:44:54;5.07;;;4.63;;
2992;SDS011;1506;48.932;9.478;2022-08-05T01:47:28;4.03;;;3.73;;
2992;SDS011;1506;48.932;9.478;2022-08-05T01:50:09;4.50;;;4.30;;
2992;SDS011;1506;48.932;9.478;2022-08-05T01:52:43;4.47;;;4.27;;
2992;SDS011;1506;48.932;9.478;2022-08-05T01:55:15;3.80;;;3.60;;
2992;SDS011;1506;48.932;9.478;2022-08-05T01:57:46;4.20;;;4.00;;
2992;SDS011;1506;48.932;9.478;2022-08-05T02:00:36;4.90;;;4.50;;
2992;SDS011;1506;48.932;9.478;2022-08-05T02:05:57;4.27;;;4.17;;
2992;SDS011;1506;48.932;9.478;2022-08-05T02:08:46;3.67;;;3.47;;
2992;SDS011;1506;48.932;9.478;2022-08-05T02:11:24;4.10;;;3.90;;
2992;SDS011;1506;48.932;9.478;2022-08-05T02:14:31;4.20;;;3.80;;
2992;SDS011;1506;48.932;9.478;2022-08-05T02:17:15;3.60;;;3.50;;
2992;SDS011;1506;48.932;9.478;2022-08-05T02:20:10;4.03;;;3.83;;
2992;SDS011;1506;48.932;9.478;2022-08-05T02:22:47;4.50;;;4.40;;
2992;SDS011;1506;48.932;9.478;2022-08-05T02:25:26;4.23;;;4.03;;
2992;SDS011;1506;48.932;9.478;2022-08-05T02:28:14;3.40;;;3.20;;
2992;SDS011;1506;48.932;9.478;2022-08-05T02:30:57;4.43;;;4.20;;
2992;SDS011;1506;48.932;9.478;2022-08-05T02:33:41;6.33;;;4.73;;
2992;SDS011;1506;48.932;9.478;2022-08-05T02:36:24;5.80;;;3.80;;
2992;SDS011;1506;48.932;9.478;2022-08-05T02:38:57;5.03;;;4.67;;
2992;SDS011;1506;48.932;9.478;2022-08-05T02:41:27;3.67;;;3.47;;
2992;SDS011;1506;48.932;9.478;2022-08-05T02:44:16;3.90;;;3.70;;
2992;SDS011;1506;48.932;9.478;2022-08-05T02:46:45;3.70;;;3.60;;
2992;SDS011;1506;48.932;9.478;2022-08-05T02:49:26;5.00;;;4.60;;
2992;SDS011;1506;48.932;9.478;2022-08-05T02:52:04;3.67;;;3.53;;
2992;SDS011;1506;48.932;9.478;2022-08-05T02:54:37;3.60;;;3.50;;
2992;SDS011;1506;48.932;9.478;2022-08-05T02:57:16;4.27;;;4.07;;
2992;SDS011;1506;48.932;9.478;2022-08-05T03:00:05;5.37;;;5.07;;
2992;SDS011;1506;48.932;9.478;2022-08-05T03:02:36;4.70;;;4.30;;
2992;SDS011;1506;48.932;9.478;2022-08-05T03:05:08;4.60;;;4.30;;
2992;SDS011;1506;48.932;9.478;2022-08-05T03:07:38;3.60;;;3.50;;
2992;SDS011;1506;48.932;9.478;2022-08-05T03:10:26;4.17;;;3.97;;
2992;SDS011;1506;48.932;9.478;2022-08-05T03:12:54;4.87;;;3.67;;
2992;SDS011;1506;48.932;9.478;2022-08-05T03:15:21;3.60;;;3.50;;
2992;SDS011;1506;48.932;9.478;2022-08-05T03:17:49;4.07;;;3.87;;
2992;SDS011;1506;48.932;9.478;2022-08-05T03:20:21;4.20;;;4.00;;
2992;SDS011;1506;48.932;9.478;2022-08-05T03:22:50;4.33;;;3.70;;
2992;SDS011;1506;48.932;9.478;2022-08-05T03:25:22;4.53;;;4.27;;
2992;SDS011;1506;48.932;9.478;2022-08-05T03:28:00;4.70;;;4.40;;
2992;SDS011;1506;48.932;9.478;2022-08-05T03:30:29;4.57;;;4.37;;
2992;SDS011;1506;48.932;9.478;2022-08-05T03:33:00;4.50;;;4.20;;
2992;SDS011;1506;48.932;9.478;2022-08-05T03:35:31;4.93;;;3.77;;
2992;SDS011;1506;48.932;9.478;2022-08-05T03:38:05;4.50;;;4.30;;
2992;SDS011;1506;48.932;9.478;2022-08-05T03:40:32;3.93;;;3.73;;
2992;SDS011;1506;48.932;9.478;2022-08-05T03:43:01;4.93;;;4.73;;
2992;SDS011;1506;48.932;9.478;2022-08-05T03:45:48;4.90;;;4.57;;
2992;SDS011;1506;48.932;9.478;2022-08-05T03:48:23;5.17;;;3.73;;
2992;SDS011;1506;48.932;9.478;2022-08-05T03:57:09;11.43;;;3.80;;
2992;SDS011;1506;48.932;9.478;2022-08-05T04:00:00;4.30;;;4.00;;
2992;SDS011;1506;48.932;9.478;2022-08-05T04:02:42;4.80;;;4.50;;
2992;SDS011;1506;48.932;9.478;2022-08-05T04:05:24;8.00;;;3.90;;
2992;SDS011;1506;48.932;9.478;2022-08-05T04:08:03;5.23;;;5.00;;
2992;SDS011;1506;48.932;9.478;2022-08-05T04:10:53;4.33;;;4.03;;
2992;SDS011;1506;48.932;9.478;2022-08-05T04:13:22;4.83;;;4.63;;
2992;SDS011;1506;48.932;9.478;2022-08-05T04:16:11;5.10;;;4.40;;
2992;SDS011;1506;48.932;9.478;2022-08-05T04:18:39;4.70;;;4.00;;
2992;SDS011;1506;48.932;9.478;2022-08-05T04:21:06;4.50;;;4.30;;
2992;SDS011;1506;48.932;9.478;2022-08-05T04:23:36;4.10;;;3.90;;
2992;SDS011;1506;48.932;9.478;2022-08-05T04:26:24;4.60;;;4.40;;
2992;SDS011;1506;48.932;9.478;2022-08-05T04:28:57;5.00;;;4.70;;
2992;SDS011;1506;48.932;9.478;2022-08-05T04:31:32;5.00;;;4.60;;
2992;SDS011;1506;48.932;9.478;2022-08-05T04:34:04;5.53;;;4.43;;
2992;SDS011;1506;48.932;9.478;2022-08-05T04:36:51;4.67;;;4.47;;
2992;SDS011;1506;48.932;9.478;2022-08-05T04:39:19;4.23;;;4.03;;
2992;SDS011;1506;48.932;9.478;2022-08-05T04:41:47;5.03;;;4.73;;
2992;SDS011;1506;48.932;9.478;2022-08-05T04:44:16;4.87;;;4.67;;
2992;SDS011;1506;48.932;9.478;2022-08-05T04:46:54;3.60;;;3.40;;
2992;SDS011;1506;48.932;9.478;2022-08-05T04:49:21;4.90;;;4.27;;
2992;SDS011;1506;48.932;9.478;2022-08-05T04:52:03;5.17;;;4.77;;
2992;SDS011;1506;48.932;9.478;2022-08-05T04:54:33;4.47;;;4.17;;
2992;SDS011;1506;48.932;9.478;2022-08-05T04:57:00;4.60;;;4.40;;
2992;SDS011;1506;48.932;9.478;2022-08-05T04:59:27;4.57;;;4.37;;
2992;SDS011;1506;48.932;9.478;2022-08-05T05:02:04;4.93;;;4.63;;
2992;SDS011;1506;48.932;9.478;2022-08-05T05:04:52;5.07;;;4.77;;
2992;SDS011;1506;48.932;9.478;2022-08-05T05:07:29;3.67;;;3.47;;
2992;SDS011;1506;48.932;9.478;2022-08-05T05:09:58;4.47;;;4.27;;
2992;SDS011;1506;48.932;9.478;2022-08-05T05:12:28;3.60;;;3.27;;
2992;SDS011;1506;48.932;9.478;2022-08-05T05:14:55;5.00;;;4.60;;
2992;SDS011;1506;48.932;9.478;2022-08-05T05:17:22;4.87;;;3.90;;
2992;SDS011;1506;48.932;9.478;2022-08-05T05:20:10;4.67;;;4.37;;
2992;SDS011;1506;48.932;9.478;2022-08-05T05:22:39;4.57;;;4.20;;
2992;SDS011;1506;48.932;9.478;2022-08-05T05:25:09;2.90;;;2.80;;
2992;SDS011;1506;48.932;9.478;2022-08-05T05:27:42;3.90;;;3.70;;
2992;SDS011;1506;48.932;9.478;2022-08-05T05:30:21;4.70;;;3.73;;
2992;SDS011;1506;48.932;9.478;2022-08-05T05:32:57;3.70;;;3.50;;
2992;SDS011;1506;48.932;9.478;2022-08-05T05:35:42;4.60;;;4.40;;
2992;SDS011;1506;48.932;9.478;2022-08-05T05:38:13;5.40;;;3.20;;
2992;SDS011;1506;48.932;9.478;2022-08-05T05:40:53;4.50;;;4.17;;
2992;SDS011;1506;48.932;9.478;2022-08-05T05:43:23;3.53;;;3.40;;
2992;SDS011;1506;48.932;9.478;2022-08-05T05:46:10;3.67;;;3.37;;
2992;SDS011;1506;48.932;9.478;2022-08-05T05:48:44;3.53;;;3.33;;
2992;SDS011;1506;48.932;9.478;2022-08-05T05:51:23;3.60;;;3.33;;
2992;SDS011;1506;48.932;9.478;2022-08-05T05:53:53;3.40;;;3.30;;
2992;SDS011;1506;48.932;9.478;2022-08-05T05:56:26;4.10;;;3.80;;
2992;SDS011;1506;48.932;9.478;2022-08-05T05:59:05;4.03;;;3.40;;
2992;SDS011;1506;48.932;9.478;2022-08-05T06:01:33;4.20;;;3.87;;
2992;SDS011;1506;48.932;9.478;2022-08-05T06:04:05;4.50;;;4.30;;
2992;SDS011;1506;48.932;9.478;2022-08-05T06:06:38;3.70;;;3.37;;
2992;SDS011;1506;48.932;9.478;2022-08-05T06:09:08;3.80;;;3.33;;
2992;SDS011;1506;48.932;9.478;2022-08-05T06:11:52;13.67;;;4.10;;
2992;SDS011;1506;48.932;9.478;2022-08-05T06:14:28;3.10;;;3.00;;
2992;SDS011;1506;48.932;9.478;2022-08-05T06:16:56;5.43;;;3.70;;
2992;SDS011;1506;48.932;9.478;2022-08-05T06:19:24;3.53;;;3.23;;
2992;SDS011;1506;48.932;9.478;2022-08-05T06:22:04;4.73;;;3.67;;
2992;SDS011;1506;48.932;9.478;2022-08-05T06:24:34;4.50;;;3.00;;
2992;SDS011;1506;48.932;9.478;2022-08-05T06:27:13;2.93;;;2.73;;
2992;SDS011;1506;48.932;9.478;2022-08-05T06:30:00;3.50;;;2.60;;
2992;SDS011;1506;48.932;9.478;2022-08-05T06:32:46;3.47;;;3.17;;
2992;SDS011;1506;48.932;9.478;2022-08-05T06:35:16;3.40;;;3.20;;
2992;SDS011;1506;48.932;9.478;2022-08-05T06:38:03;2.50;;;2.40;;
2992;SDS011;1506;48.932;9.478;2022-08-05T06:40:37;2.47;;;2.37;;
2992;SDS011;1506;48.932;9.478;2022-08-05T06:43:09;3.33;;;2.93;;
2992;SDS011;1506;48.932;9.478;2022-08-05T06:45:57;3.33;;;2.37;;
2992;SDS011;1506;48.932;9.478;2022-08-05T06:48:32;3.20;;;2.40;;
2992;SDS011;1506;48.932;9.478;2022-08-05T06:51:20;2.67;;;2.57;;
2992;SDS011;1506;48.932;9.478;2022-08-05T06:53:59;3.57;;;2.90;;
2992;SDS011;1506;48.932;9.478;2022-08-05T06:56:27;2.67;;;2.57;;
2992;SDS011;1506;48.932;9.478;2022-08-05T06:59:00;2.60;;;2.50;;
2992;SDS011;1506;48.932;9.478;2022-08-05T07:01:33;2.33;;;2.23;;
2992;SDS011;1506;48.932;9.478;2022-08-05T07:04:02;4.90;;;2.53;;
2992;SDS011;1506;48.932;9.478;2022-08-05T07:06:29;2.00;;;1.90;;
2992;SDS011;1506;48.932;9.478;2022-08-05T07:08:57;2.20;;;2.00;;
2992;SDS011;1506;48.932;9.478;2022-08-05T07:11:29;3.10;;;2.07;;
2992;SDS011;1506;48.932;9.478;2022-08-05T07:14:04;1.97;;;1.87;;
2992;SDS011;1506;48.932;9.478;2022-08-05T07:16:55;2.03;;;1.93;;
2992;SDS011;1506;48.932;9.478;2022-08-05T07:19:47;2.63;;;2.17;;
2992;SDS011;1506;48.932;9.478;2022-08-05T07:22:35;1.83;;;1.73;;
2992;SDS011;1506;48.932;9.478;2022-08-05T07:25:03;2.07;;;1.97;;
2992;SDS011;1506;48.932;9.478;2022-08-05T07:27:50;2.60;;;1.90;;
2992;SDS011;1506;48.932;9.478;2022-08-05T07:30:32;2.00;;;1.90;;
2992;SDS011;1506;48.932;9.478;2022-08-05T07:33:05;2.00;;;1.90;;
2992;SDS011;1506;48.932;9.478;2022-08-05T07:35:41;2.50;;;2.40;;
2992;SDS011;1506;48.932;9.478;2022-08-05T07:38:29;1.97;;;1.87;;
2992;SDS011;1506;48.932;9.478;2022-08-05T07:41:04;1.80;;;1.70;;
2992;SDS011;1506;48.932;9.478;2022-08-05T07:43:53;2.60;;;1.90;;
2992;SDS011;1506;48.932;9.478;2022-08-05T07:46:25;2.50;;;1.90;;
2992;SDS011;1506;48.932;9.478;2022-08-05T07:48:54;3.20;;;2.07;;
2992;SDS011;1506;48.932;9.478;2022-08-05T07:51:33;4.60;;;1.87;;
2992;SDS011;1506;48.932;9.478;2022-08-05T07:54:14;1.70;;;1.60;;
2992;SDS011;1506;48.932;9.478;2022-08-05T07:56:44;4.60;;;2.17;;
2992;SDS011;1506;48.932;9.478;2022-08-05T07:59:31;2.03;;;1.93;;
2992;SDS011;1506;48.932;9.478;2022-08-05T08:02:09;1.97;;;1.87;;
2992;SDS011;1506;48.932;9.478;2022-08-05T08:04:45;2.50;;;2.40;;
2992;SDS011;1506;48.932;9.478;2022-08-05T08:07:14;3.80;;;2.10;;
2992;SDS011;1506;48.932;9.478;2022-08-05T08:09:49;2.30;;;2.20;;
2992;SDS011;1506;48.932;9.478;2022-08-05T08:12:17;2.47;;;2.27;;
2992;SDS011;1506;48.932;9.478;2022-08-05T08:15:06;1.53;;;1.43;;
2992;SDS011;1506;48.932;9.478;2022-08-05T08:17:39;2.37;;;2.17;;
2992;SDS011;1506;48.932;9.478;2022-08-05T08:20:18;3.33;;;3.23;;
2992;SDS011;1506;48.932;9.478;2022-08-05T08:23:09;2.17;;;1.97;;
2992;SDS011;1506;48.932;9.478;2022-08-05T08:25:56;2.10;;;1.27;;
2992;SDS011;1506;48.932;9.478;2022-08-05T08:28:26;4.83;;;1.83;;
2992;SDS011;1506;48.932;9.478;2022-08-05T08:31:02;1.43;;;1.33;;
2992;SDS011;1506;48.932;9.478;2022-08-05T08:33:33;3.63;;;2.07;;
2992;SDS011;1506;48.932;9.478;2022-08-05T08:36:03;2.73;;;1.60;;
2992;SDS011;1506;48.932;9.478;2022-08-05T08:38:54;2.07;;;1.77;;
2992;SDS011;1506;48.932;9.478;2022-08-05T08:41:23;1.10;;;1.10;;
2992;SDS011;1506;48.932;9.478;2022-08-05T08:44:12;3.33;;;1.53;;
2992;SDS011;1506;48.932;9.478;2022-08-05T08:47:02;1.90;;;1.43;;
2992;SDS011;1506;48.932;9.478;2022-08-05T08:49:53;1.63;;;1.53;;
2992;SDS011;1506;48.932;9.478;2022-08-05T08:52:42;2.27;;;1.70;;
2992;SDS011;1506;48.932;9.478;2022-08-05T08:55:21;1.40;;;1.20;;
2992;SDS011;1506;48.932;9.478;2022-08-05T08:58:09;2.10;;;2.00;;
2992;SDS011;1506;48.932;9.478;2022-08-05T09:00:39;1.73;;;1.63;;
2992;SDS011;1506;48.932;9.478;2022-08-05T09:03:08;9.40;;;2.30;;
2992;SDS011;1506;48.932;9.478;2022-08-05T09:05:36;1.63;;;1.53;;
2992;SDS011;1506;48.932;9.478;2022-08-05T09:08:24;1.87;;;1.77;;
2992;SDS011;1506;48.932;9.478;2022-08-05T09:10:55;5.63;;;1.30;;
2992;SDS011;1506;48.932;9.478;2022-08-05T09:13:23;1.70;;;1.60;;
2992;SDS011;1506;48.932;9.478;2022-08-05T09:16:11;1.50;;;1.47;;
2992;SDS011;1506;48.932;9.478;2022-08-05T09:18:42;1.77;;;1.67;;
2992;SDS011;1506;48.932;9.478;2022-08-05T09:21:09;1.93;;;1.83;;
2992;SDS011;1506;48.932;9.478;2022-08-05T09:24:06;1.47;;;1.37;;
2992;SDS011;1506;48.932;9.478;2022-08-05T09:26:35;1.43;;;1.40;;
2992;SDS011;1506;48.932;9.478;2022-08-05T09:29:04;1.73;;;1.63;;
2992;SDS011;1506;48.932;9.478;2022-08-05T09:31:34;2.60;;;2.40;;
2992;SDS011;1506;48.932;9.478;2022-08-05T09:34:22;2.57;;;1.90;;
2992;SDS011;1506;48.932;9.478;2022-08-05T09:36:51;1.50;;;1.40;;
2992;SDS011;1506;48.932;9.478;2022-08-05T09:39:24;2.43;;;1.77;;
2992;SDS011;1506;48.932;9.478;2022-08-05T09:42:12;6.93;;;1.80;;
2992;SDS011;1506;48.932;9.478;2022-08-05T09:44:53;1.60;;;1.50;;
2992;SDS011;1506;48.932;9.478;2022-08-05T09:47:25;1.93;;;1.50;;
2992;SDS011;1506;48.932;9.478;2022-08-05T09:50:13;1.23;;;1.23;;
2992;SDS011;1506;48.932;9.478;2022-08-05T09:53:05;1.40;;;1.33;;
2992;SDS011;1506;48.932;9.478;2022-08-05T09:55:38;4.60;;;1.20;;
2992;SDS011;1506;48.932;9.478;2022-08-05T09:58:24;2.03;;;1.60;;
2992;SDS011;1506;48.932;9.478;2022-08-05T10:00:58;0.97;;;0.97;;
2992;SDS011;1506;48.932;9.478;2022-08-05T10:03:44;1.70;;;1.60;;
2992;SDS011;1506;48.932;9.478;2022-08-05T10:06:26;6.63;;;2.03;;
2992;SDS011;1506;48.932;9.478;2022-08-05T10:08:54;2.07;;;1.97;;
2992;SDS011;1506;48.932;9.478;2022-08-05T10:11:22;2.20;;;2.10;;
2992;SDS011;1506;48.932;9.478;2022-08-05T10:14:03;1.43;;;1.37;;
2992;SDS011;1506;48.932;9.478;2022-08-05T10:16:52;3.40;;;1.50;;
2992;SDS011;1506;48.932;9.478;2022-08-05T10:19:25;2.50;;;1.40;;
2992;SDS011;1506;48.932;9.478;2022-08-05T10:22:13;1.73;;;1.63;;
2992;SDS011;1506;48.932;9.478;2022-08-05T10:24:55;1.20;;;1.20;;
2992;SDS011;1506;48.932;9.478;2022-08-05T10:27:23;1.93;;;1.70;;
2992;SDS011;1506;48.932;9.478;2022-08-05T10:30:11;1.80;;;1.70;;
2992;SDS011;1506;48.932;9.478;2022-08-05T10:32:58;1.73;;;1.63;;
2992;SDS011;1506;48.932;9.478;2022-08-05T10:35:28;1.97;;;1.87;;
2992;SDS011;1506;48.932;9.478;2022-08-05T10:38:05;1.77;;;1.67;;
2992;SDS011;1506;48.932;9.478;2022-08-05T10:40:38;5.40;;;3.10;;
2992;SDS011;1506;48.932;9.478;2022-08-05T10:46:03;2.87;;;1.73;;
2992;SDS011;1506;48.932;9.478;2022-08-05T10:48:36;1.77;;;1.67;;
2992;SDS011;1506;48.932;9.478;2022-08-05T10:51:23;1.60;;;1.50;;
2992;SDS011;1506;48.932;9.478;2022-08-05T10:53:55;3.77;;;2.30;;
2992;SDS011;1506;48.932;9.478;2022-08-05T10:56:35;1.70;;;1.60;;
2992;SDS011;1506;48.932;9.478;2022-08-05T10:59:22;1.50;;;1.40;;
2992;SDS011;1506;48.932;9.478;2022-08-05T11:02:12;1.50;;;1.40;;
2992;SDS011;1506;48.932;9.478;2022-08-05T11:05:02;1.80;;;1.70;;
2992;SDS011;1506;48.932;9.478;2022-08-05T11:07:32;2.03;;;1.93;;
2992;SDS011;1506;48.932;9.478;2022-08-05T11:10:21;1.80;;;1.70;;
2992;SDS011;1506;48.932;9.478;2022-08-05T11:12:54;1.43;;;1.33;;
2992;SDS011;1506;48.932;9.478;2022-08-05T11:15:33;4.20;;;1.83;;
2992;SDS011;1506;48.932;9.478;2022-08-05T11:18:27;2.10;;;2.00;;
2992;SDS011;1506;48.932;9.478;2022-08-05T11:20:59;1.63;;;1.53;;
2992;SDS011;1506;48.932;9.478;2022-08-05T11:23:52;1.90;;;1.80;;
2992;SDS011;1506;48.932;9.478;2022-08-05T11:26:39;1.87;;;1.77;;
2992;SDS011;1506;48.932;9.478;2022-08-05T11:29:11;1.20;;;1.20;;
2992;SDS011;1506;48.932;9.478;2022-08-05T11:34:55;1.23;;;1.23;;
2992;SDS011;1506;48.932;9.478;2022-08-05T11:40:53;1.67;;;1.57;;
2992;SDS011;1506;48.932;9.478;2022-08-05T11:47:03;1.50;;;1.40;;
2992;SDS011;1506;48.932;9.478;2022-08-05T11:49:40;1.70;;;1.60;;
2992;SDS011;1506;48.932;9.478;2022-08-05T11:52:08;1.87;;;1.77;;
2992;SDS011;1506;48.932;9.478;2022-08-05T11:54:37;2.00;;;1.90;;
2992;SDS011;1506;48.932;9.478;2022-08-05T11:57:06;1.83;;;1.67;;
2992;SDS011;1506;48.932;9.478;2022-08-05T11:59:52;2.20;;;2.00;;
2992;SDS011;1506;48.932;9.478;2022-08-05T12:02:27;1.90;;;1.80;;
2992;SDS011;1506;48.932;9.478;2022-08-05T12:05:00;2.20;;;1.80;;
2992;SDS011;1506;48.932;9.478;2022-08-05T12:07:43;1.43;;;1.33;;
2992;SDS011;1506;48.932;9.478;2022-08-05T12:10:33;2.53;;;1.80;;
2992;SDS011;1506;48.932;9.478;2022-08-05T12:13:11;1.87;;;1.77;;
2992;SDS011;1506;48.932;9.478;2022-08-05T12:16:03;2.00;;;1.90;;
2992;SDS011;1506;48.932;9.478;2022-08-05T12:18:40;1.80;;;1.70;;
2992;SDS011;1506;48.932;9.478;2022-08-05T12:21:25;1.50;;;1.40;;
2992;SDS011;1506;48.932;9.478;2022-08-05T12:24:05;1.97;;;1.70;;
2992;SDS011;1506;48.932;9.478;2022-08-05T12:26:35;1.87;;;1.77;;
2992;SDS011;1506;48.932;9.478;2022-08-05T12:29:17;1.67;;;1.57;;
2992;SDS011;1506;48.932;9.478;2022-08-05T12:31:52;1.93;;;1.83;;
2992;SDS011;1506;48.932;9.478;2022-08-05T12:34:22;1.97;;;1.80;;
2992;SDS011;1506;48.932;9.478;2022-08-05T12:37:01;1.87;;;1.77;;
2992;SDS011;1506;48.932;9.478;2022-08-05T12:39:43;4.07;;;1.90;;
2992;SDS011;1506;48.932;9.478;2022-08-05T12:42:17;3.47;;;2.00;;
2992;SDS011;1506;48.932;9.478;2022-08-05T12:44:46;1.73;;;1.63;;
2992;SDS011;1506;48.932;9.478;2022-08-05T12:47:26;2.10;;;2.00;;
2992;SDS011;1506;48.932;9.478;2022-08-05T12:49:56;1.87;;;1.77;;
2992;SDS011;1506;48.932;9.478;2022-08-05T12:52:31;2.10;;;2.00;;
2992;SDS011;1506;48.932;9.478;2022-08-05T12:55:20;2.17;;;2.07;;
2992;SDS011;1506;48.932;9.478;2022-08-05T12:57:51;2.10;;;2.00;;
2992;SDS011;1506;48.932;9.478;2022-08-05T13:00:42;5.83;;;1.60;;
2992;SDS011;1506;48.932;9.478;2022-08-05T13:03:32;2.23;;;2.13;;
2992;SDS011;1506;48.932;9.478;2022-08-05T13:06:11;1.67;;;1.57;;
2992;SDS011;1506;48.932;9.478;2022-08-05T13:08:41;3.00;;;2.40;;
2992;SDS011;1506;48.932;9.478;2022-08-05T13:11:18;1.60;;;1.50;;
2992;SDS011;1506;48.932;9.478;2022-08-05T13:14:21;3.73;;;3.10;;
2992;SDS011;1506;48.932;9.478;2022-08-05T13:17:01;1.90;;;1.67;;
2992;SDS011;1506;48.932;9.478;2022-08-05T13:19:31;2.20;;;2.10;;
2992;SDS011;1506;48.932;9.478;2022-08-05T13:22:18;2.00;;;1.80;;
2992;SDS011;1506;48.932;9.478;2022-08-05T13:24:55;1.73;;;1.63;;
2992;SDS011;1506;48.932;9.478;2022-08-05T13:27:31;2.37;;;2.17;;
2992;SDS011;1506;48.932;9.478;2022-08-05T13:30:04;2.73;;;2.53;;
2992;SDS011;1506;48.932;9.478;2022-08-05T13:32:53;2.17;;;2.07;;
2992;SDS011;1506;48.932;9.478;2022-08-05T13:35:21;2.27;;;2.13;;
2992;SDS011;1506;48.932;9.478;2022-08-05T13:38:09;2.30;;;2.10;;
2992;SDS011;1506;48.932;9.478;2022-08-05T13:40:53;2.10;;;2.00;;
2992;SDS011;1506;48.932;9.478;2022-08-05T13:43:21;2.13;;;2.03;;
2992;SDS011;1506;48.932;9.478;2022-08-05T13:45:48;2.00;;;1.90;;
2992;SDS011;1506;48.932;9.478;2022-08-05T13:48:16;3.23;;;2.13;;
2992;SDS011;1506;48.932;9.478;2022-08-05T13:51:07;2.07;;;1.80;;
2992;SDS011;1506;48.932;9.478;2022-08-05T13:53:35;6.60;;;2.10;;
2992;SDS011;1506;48.932;9.478;2022-08-05T13:56:13;2.57;;;2.37;;
2992;SDS011;1506;48.932;9.478;2022-08-05T13:58:44;3.27;;;3.03;;
2992;SDS011;1506;48.932;9.478;2022-08-05T14:01:19;2.47;;;1.77;;
2992;SDS011;1506;48.932;9.478;2022-08-05T14:04:01;1.70;;;1.60;;
2992;SDS011;1506;48.932;9.478;2022-08-05T14:06:52;2.70;;;2.30;;
2992;SDS011;1506;48.932;9.478;2022-08-05T14:09:38;2.40;;;2.30;;
2992;SDS011;1506;48.932;9.478;2022-08-05T14:12:11;2.33;;;2.23;;
2992;SDS011;1506;48.932;9.478;2022-08-05T14:14:43;1.50;;;1.40;;
2992;SDS011;1506;48.932;9.478;2022-08-05T14:17:12;1.70;;;1.60;;
2992;SDS011;1506;48.932;9.478;2022-08-05T14:19:43;1.40;;;1.30;;
2992;SDS011;1506;48.932;9.478;2022-08-05T14:22:22;2.33;;;2.23;;
2992;SDS011;1506;48.932;9.478;2022-08-05T14:24:55;1.80;;;1.70;;
2992;SDS011;1506;48.932;9.478;2022-08-05T14:27:23;2.37;;;1.90;;
2992;SDS011;1506;48.932;9.478;2022-08-05T14:29:53;2.00;;;1.90;;
2992;SDS011;1506;48.932;9.478;2022-08-05T14:32:21;2.67;;;2.57;;
2992;SDS011;1506;48.932;9.478;2022-08-05T14:34:53;1.83;;;1.67;;
2992;SDS011;1506;48.932;9.478;2022-08-05T14:37:23;2.37;;;2.27;;
2992;SDS011;1506;48.932;9.478;2022-08-05T14:40:10;1.70;;;1.60;;
2992;SDS011;1506;48.932;9.478;2022-08-05T14:42:41;1.93;;;1.83;;
2992;SDS011;1506;48.932;9.478;2022-08-05T14:45:09;2.87;;;1.83;;
2992;SDS011;1506;48.932;9.478;2022-08-05T14:47:36;1.90;;;1.80;;
2992;SDS011;1506;48.932;9.478;2022-08-05T14:50:24;2.17;;;1.77;;
2992;SDS011;1506;48.932;9.478;2022-08-05T14:52:51;2.33;;;2.23;;
2992;SDS011;1506;48.932;9.478;2022-08-05T14:55:24;1.90;;;1.80;;
2992;SDS011;1506;48.932;9.478;2022-08-05T14:58:05;2.00;;;1.90;;
2992;SDS011;1506;48.932;9.478;2022-08-05T15:00:38;2.50;;;2.40;;
2992;SDS011;1506;48.932;9.478;2022-08-05T15:03:28;2.40;;;2.30;;
2992;SDS011;1506;48.932;9.478;2022-08-05T15:06:04;2.37;;;2.27;;
2992;SDS011;1506;48.932;9.478;2022-08-05T15:08:41;2.20;;;2.10;;
2992;SDS011;1506;48.932;9.478;2022-08-05T15:11:32;3.97;;;2.30;;
2992;SDS011;1506;48.932;9.478;2022-08-05T15:14:19;2.13;;;2.03;;
2992;SDS011;1506;48.932;9.478;2022-08-05T15:17:06;2.60;;;2.50;;
2992;SDS011;1506;48.932;9.478;2022-08-05T15:19:54;2.20;;;2.10;;
2992;SDS011;1506;48.932;9.478;2022-08-05T15:22:22;3.00;;;2.70;;
2992;SDS011;1506;48.932;9.478;2022-08-05T15:24:53;7.10;;;3.00;;
2992;SDS011;1506;48.932;9.478;2022-08-05T15:27:21;2.50;;;2.40;;
2992;SDS011;1506;48.932;9.478;2022-08-05T15:29:51;3.10;;;3.00;;
2992;SDS011;1506;48.932;9.478;2022-08-05T15:32:22;2.07;;;1.97;;
2992;SDS011;1506;48.932;9.478;2022-08-05T15:34:52;3.70;;;2.47;;
2992;SDS011;1506;48.932;9.478;2022-08-05T15:37:20;2.90;;;2.80;;
2992;SDS011;1506;48.932;9.478;2022-08-05T15:40:07;2.30;;;2.00;;
2992;SDS011;1506;48.932;9.478;2022-08-05T15:42:55;2.70;;;2.50;;
2992;SDS011;1506;48.932;9.478;2022-08-05T15:45:43;2.57;;;2.37;;
2992;SDS011;1506;48.932;9.478;2022-08-05T15:48:11;2.53;;;2.33;;
2992;SDS011;1506;48.932;9.478;2022-08-05T15:50:40;2.87;;;2.63;;
2992;SDS011;1506;48.932;9.478;2022-08-05T15:53:11;2.17;;;2.07;;
2992;SDS011;1506;48.932;9.478;2022-08-05T15:55:42;3.03;;;2.80;;
2992;SDS011;1506;48.932;9.478;2022-08-05T15:58:29;3.53;;;3.00;;
2992;SDS011;1506;48.932;9.478;2022-08-05T16:01:03;3.93;;;2.87;;
2992;SDS011;1506;48.932;9.478;2022-08-05T16:03:43;2.67;;;2.50;;
2992;SDS011;1506;48.932;9.478;2022-08-05T16:06:16;3.00;;;2.60;;
2992;SDS011;1506;48.932;9.478;2022-08-05T16:08:46;2.50;;;2.40;;
2992;SDS011;1506;48.932;9.478;2022-08-05T16:11:16;3.57;;;3.37;;
2992;SDS011;1506;48.932;9.478;2022-08-05T16:13:46;3.07;;;2.87;;
2992;SDS011;1506;48.932;9.478;2022-08-05T16:16:13;3.93;;;2.73;;
2992;SDS011;1506;48.932;9.478;2022-08-05T16:18:50;3.33;;;3.10;;
2992;SDS011;1506;48.932;9.478;2022-08-05T16:21:18;2.63;;;2.53;;
2992;SDS011;1506;48.932;9.478;2022-08-05T16:24:05;3.23;;;3.03;;
2992;SDS011;1506;48.932;9.478;2022-08-05T16:26:54;5.47;;;3.03;;
2992;SDS011;1506;48.932;9.478;2022-08-05T16:29:23;4.00;;;3.80;;
2992;SDS011;1506;48.932;9.478;2022-08-05T16:31:56;3.10;;;3.00;;
2992;SDS011;1506;48.932;9.478;2022-08-05T16:34:24;3.70;;;3.47;;
2992;SDS011;1506;48.932;9.478;2022-08-05T16:36:52;3.20;;;3.00;;
2992;SDS011;1506;48.932;9.478;2022-08-05T16:39:21;4.37;;;3.43;;
2992;SDS011;1506;48.932;9.478;2022-08-05T16:42:08;3.20;;;3.00;;
2992;SDS011;1506;48.932;9.478;2022-08-05T16:44:42;2.80;;;2.70;;
2992;SDS011;1506;48.932;9.478;2022-08-05T16:47:19;2.10;;;2.00;;